createdAt,value
2024-01-07T00:00:40.225Z,45.95
2024-01-07T00:01:40.168Z,45.95
2024-01-07T00:02:40.185Z,45.95
2024-01-07T00:03:40.166Z,45.95
2024-01-07T00:04:40.098Z,45.95
2024-01-07T00:05:40.164Z,45.95
2024-01-07T00:06:40.139Z,45.95
2024-01-07T00:07:40.070Z,45.95
2024-01-07T00:08:40.061Z,45.95
2024-01-07T00:09:40.071Z,45.84
2024-01-07T00:10:40.047Z,45.95
2024-01-07T00:11:40.052Z,45.84
2024-01-07T00:12:40.063Z,45.84
2024-01-07T00:13:40.013Z,45.73
2024-01-07T00:14:39.998Z,45.84
2024-01-07T00:15:40.027Z,45.73
2024-01-07T00:16:39.975Z,45.73
2024-01-07T00:17:40.073Z,45.73
2024-01-07T00:18:40.171Z,45.73
2024-01-07T00:19:39.982Z,45.73
2024-01-07T00:20:42.019Z,45.73
2024-01-07T00:21:39.951Z,45.73
2024-01-07T00:22:40.234Z,45.73
2024-01-07T00:23:39.907Z,45.73
2024-01-07T00:24:39.939Z,45.73
2024-01-07T00:25:39.900Z,45.73
2024-01-07T00:26:39.893Z,45.73
2024-01-07T00:27:39.892Z,45.73
2024-01-07T00:28:39.853Z,45.73
2024-01-07T00:29:39.865Z,45.63
2024-01-07T00:30:40.025Z,45.63
2024-01-07T00:31:39.993Z,45.63
2024-01-07T00:32:39.860Z,45.63
2024-01-07T00:33:39.862Z,45.63
2024-01-07T00:34:40.024Z,45.63
2024-01-07T00:35:39.819Z,45.63
2024-01-07T00:36:39.792Z,45.63
2024-01-07T00:37:39.934Z,45.53
2024-01-07T00:38:39.765Z,45.53
2024-01-07T00:39:39.784Z,45.53
2024-01-07T00:40:39.761Z,45.53
2024-01-07T00:41:39.760Z,45.53
2024-01-07T00:42:39.792Z,45.42
2024-01-07T00:43:39.721Z,45.42
2024-01-07T00:44:39.706Z,45.42
2024-01-07T00:45:39.739Z,45.42
2024-01-07T00:46:39.675Z,45.42
2024-01-07T00:47:39.758Z,45.42
2024-01-07T00:48:39.810Z,45.42
2024-01-07T00:49:39.729Z,45.42
2024-01-07T00:50:39.675Z,45.32
2024-01-07T00:51:40.764Z,45.32
2024-01-07T00:52:39.653Z,45.32
2024-01-07T00:53:39.620Z,45.32
2024-01-07T00:54:40.323Z,45.32
2024-01-07T00:55:39.588Z,45.32
2024-01-07T00:56:39.632Z,45.32
2024-01-07T00:57:39.828Z,45.32
2024-01-07T00:58:39.559Z,45.21
2024-01-07T00:59:39.563Z,45.21
2024-01-07T01:00:39.736Z,45.21
2024-01-07T01:01:39.696Z,45.21
2024-01-07T01:02:39.524Z,45.21
2024-01-07T01:03:39.682Z,45.21
2024-01-07T01:04:39.621Z,45.21
2024-01-07T01:05:39.564Z,45.21
2024-01-07T01:06:39.528Z,45.21
2024-01-07T01:07:39.581Z,45.21
2024-01-07T01:08:39.487Z,45.21
2024-01-07T01:09:39.509Z,45.21
2024-01-07T01:10:39.434Z,45.21
2024-01-07T01:11:39.426Z,45.21
2024-01-07T01:12:39.447Z,45.21
2024-01-07T01:13:39.433Z,45.21
2024-01-07T01:14:39.501Z,45.21
2024-01-07T01:15:39.417Z,45.21
2024-01-07T01:16:39.367Z,45.21
2024-01-07T01:17:39.424Z,45.21
2024-01-07T01:18:39.463Z,45.21
2024-01-07T01:19:39.483Z,45.21
2024-01-07T01:20:39.343Z,45.21
2024-01-07T01:21:39.376Z,45.21
2024-01-07T01:22:39.324Z,45.11
2024-01-07T01:23:39.353Z,45.11
2024-01-07T01:24:39.318Z,45.11
2024-01-07T01:25:39.309Z,45.11
2024-01-07T01:26:39.281Z,45.11
2024-01-07T01:27:39.341Z,45.11
2024-01-07T01:28:39.262Z,45.11
2024-01-07T01:29:39.271Z,45.21
2024-01-07T01:30:39.286Z,45.11
2024-01-07T01:31:39.311Z,45.21
2024-01-07T01:32:39.397Z,45.11
2024-01-07T01:33:39.416Z,45.11
2024-01-07T01:34:39.233Z,45.11
2024-01-07T01:35:39.194Z,45.11
2024-01-07T01:36:39.211Z,45.11
2024-01-07T01:37:39.199Z,45.11
2024-01-07T01:38:39.193Z,45.11
2024-01-07T01:39:39.207Z,45.11
2024-01-07T01:40:39.154Z,45.11
2024-01-07T01:41:39.126Z,45.01
2024-01-07T01:42:39.151Z,45.01
2024-01-07T01:43:39.119Z,44.99
2024-01-07T01:44:39.085Z,45.01
2024-01-07T01:45:39.134Z,44.99
2024-01-07T01:46:39.073Z,45.01
2024-01-07T01:47:39.125Z,45.01
2024-01-07T01:48:39.174Z,44.99
2024-01-07T01:49:39.136Z,45.01
2024-01-07T01:50:39.042Z,45.01
2024-01-07T01:51:39.121Z,44.88
2024-01-07T01:52:39.036Z,44.88
2024-01-07T01:53:39.011Z,44.90
2024-01-07T01:54:39.404Z,44.88
2024-01-07T01:55:38.981Z,44.88
2024-01-07T01:56:38.967Z,44.78
2024-01-07T01:57:39.053Z,44.78
2024-01-07T01:58:38.963Z,44.78
2024-01-07T01:59:39.027Z,44.88
2024-01-07T02:00:39.027Z,44.80
2024-01-07T02:01:38.990Z,44.88
2024-01-07T02:02:38.961Z,44.90
2024-01-07T02:03:38.944Z,44.90
2024-01-07T02:04:38.958Z,44.78
2024-01-07T02:05:38.894Z,44.80
2024-01-07T02:06:38.955Z,44.78
2024-01-07T02:07:38.859Z,44.78
2024-01-07T02:08:38.848Z,44.78
2024-01-07T02:09:38.874Z,44.78
2024-01-07T02:10:41.629Z,44.78
2024-01-07T02:11:39.126Z,44.78
2024-01-07T02:12:38.836Z,44.67
2024-01-07T02:13:38.799Z,44.67
2024-01-07T02:14:38.786Z,44.67
2024-01-07T02:15:38.841Z,44.67
2024-01-07T02:16:38.777Z,44.67
2024-01-07T02:17:38.783Z,44.67
2024-01-07T02:18:38.874Z,44.67
2024-01-07T02:19:38.878Z,44.67
2024-01-07T02:20:38.737Z,44.67
2024-01-07T02:21:38.755Z,44.67
2024-01-07T02:22:38.731Z,44.67
2024-01-07T02:23:38.694Z,44.57
2024-01-07T02:24:38.754Z,44.67
2024-01-07T02:25:38.714Z,44.57
2024-01-07T02:26:38.697Z,44.57
2024-01-07T02:27:38.721Z,44.57
2024-01-07T02:28:39.473Z,44.57
2024-01-07T02:29:38.633Z,44.57
2024-01-07T02:30:38.681Z,44.57
2024-01-07T02:31:38.658Z,44.57
2024-01-07T02:32:38.701Z,44.57
2024-01-07T02:33:38.871Z,44.46
2024-01-07T02:34:38.648Z,44.46
2024-01-07T02:35:38.576Z,44.46
2024-01-07T02:36:38.601Z,44.46
2024-01-07T02:37:38.583Z,44.46
2024-01-07T02:38:38.573Z,44.46
2024-01-07T02:39:38.577Z,44.36
2024-01-07T02:40:38.532Z,44.36
2024-01-07T02:41:38.513Z,44.36
2024-01-07T02:42:38.516Z,44.36
2024-01-07T02:43:38.508Z,44.36
2024-01-07T02:44:39.457Z,44.36
2024-01-07T02:45:38.485Z,44.36
2024-01-07T02:46:38.480Z,44.36
2024-01-07T02:47:38.530Z,44.36
2024-01-07T02:48:38.507Z,44.36
2024-01-07T02:49:38.549Z,44.26
2024-01-07T02:50:38.437Z,44.36
2024-01-07T02:51:38.527Z,44.26
2024-01-07T02:52:38.424Z,44.26
2024-01-07T02:53:38.389Z,44.26
2024-01-07T02:54:38.404Z,44.26
2024-01-07T02:55:38.374Z,44.26
2024-01-07T02:56:38.368Z,44.26
2024-01-07T02:57:38.362Z,44.26
2024-01-07T02:58:38.342Z,44.26
2024-01-07T02:59:38.318Z,44.26
2024-01-07T03:00:38.417Z,44.26
2024-01-07T03:01:38.360Z,44.26
2024-01-07T03:02:38.513Z,44.26
2024-01-07T03:03:38.336Z,44.26
2024-01-07T03:04:38.307Z,44.26
2024-01-07T03:05:38.332Z,44.26
2024-01-07T03:06:38.310Z,44.26
2024-01-07T03:07:38.242Z,44.26
2024-01-07T03:08:38.258Z,44.26
2024-01-07T03:09:39.128Z,44.26
2024-01-07T03:10:39.029Z,44.26
2024-01-07T03:11:38.229Z,44.26
2024-01-07T03:12:38.238Z,44.26
2024-01-07T03:13:38.229Z,44.26
2024-01-07T03:14:38.183Z,44.36
2024-01-07T03:15:38.258Z,44.26
2024-01-07T03:16:38.187Z,44.26
2024-01-07T03:17:38.281Z,44.36
2024-01-07T03:18:38.518Z,44.26
2024-01-07T03:19:38.168Z,44.36
2024-01-07T03:20:38.130Z,44.36
2024-01-07T03:21:38.153Z,44.36
2024-01-07T03:22:38.108Z,44.36
2024-01-07T03:23:38.098Z,44.36
2024-01-07T03:24:38.114Z,44.26
2024-01-07T03:25:38.070Z,44.26
2024-01-07T03:26:38.065Z,44.26
2024-01-07T03:27:38.117Z,44.26
2024-01-07T03:28:38.043Z,44.26
2024-01-07T03:29:38.119Z,44.26
2024-01-07T03:30:38.121Z,44.26
2024-01-07T03:31:38.185Z,44.26
2024-01-07T03:32:38.065Z,44.26
2024-01-07T03:33:38.120Z,44.15
2024-01-07T03:34:38.106Z,44.15
2024-01-07T03:35:37.983Z,44.15
2024-01-07T03:36:37.990Z,44.15
2024-01-07T03:37:37.956Z,44.15
2024-01-07T03:38:37.944Z,44.15
2024-01-07T03:39:37.936Z,44.15
2024-01-07T03:40:37.939Z,44.15
2024-01-07T03:41:37.905Z,44.15
2024-01-07T03:42:37.917Z,44.05
2024-01-07T03:43:37.896Z,44.05
2024-01-07T03:44:37.924Z,44.15
2024-01-07T03:45:37.908Z,44.05
2024-01-07T03:46:38.095Z,44.05
2024-01-07T03:47:37.912Z,44.05
2024-01-07T03:48:37.987Z,44.05
2024-01-07T03:49:38.100Z,44.05
2024-01-07T03:50:37.818Z,44.05
2024-01-07T03:51:37.858Z,44.05
2024-01-07T03:52:37.796Z,44.05
2024-01-07T03:53:37.780Z,44.05
2024-01-07T03:54:37.783Z,44.05
2024-01-07T03:55:37.796Z,44.05
2024-01-07T03:56:37.759Z,44.05
2024-01-07T03:57:37.805Z,44.05
2024-01-07T03:58:37.747Z,44.05
2024-01-07T03:59:37.712Z,44.05
2024-01-07T04:00:37.798Z,44.05
2024-01-07T04:01:37.745Z,44.05
2024-01-07T04:02:37.719Z,44.05
2024-01-07T04:03:37.742Z,44.05
2024-01-07T04:04:37.701Z,44.05
2024-01-07T04:05:37.702Z,44.05
2024-01-07T04:06:37.861Z,44.05
2024-01-07T04:07:37.636Z,44.05
2024-01-07T04:08:37.615Z,44.05
2024-01-07T04:09:38.348Z,44.05
2024-01-07T04:10:37.625Z,44.05
2024-01-07T04:11:37.592Z,44.05
2024-01-07T04:12:37.624Z,44.05
2024-01-07T04:13:37.579Z,44.05
2024-01-07T04:14:38.384Z,44.05
2024-01-07T04:15:37.552Z,44.15
2024-01-07T04:16:37.578Z,44.15
2024-01-07T04:17:37.610Z,44.05
2024-01-07T04:18:37.599Z,44.07
2024-01-07T04:19:37.565Z,44.05
2024-01-07T04:20:37.497Z,44.05
2024-01-07T04:21:37.556Z,44.17
2024-01-07T04:22:37.480Z,44.05
2024-01-07T04:23:37.482Z,44.05
2024-01-07T04:24:37.504Z,44.05
2024-01-07T04:25:37.464Z,44.05
2024-01-07T04:26:37.445Z,44.05
2024-01-07T04:27:37.473Z,44.05
2024-01-07T04:28:37.430Z,44.05
2024-01-07T04:29:37.399Z,44.15
2024-01-07T04:30:37.487Z,44.07
2024-01-07T04:31:37.497Z,44.07
2024-01-07T04:32:37.438Z,44.05
2024-01-07T04:33:37.437Z,44.07
2024-01-07T04:34:37.529Z,44.07
2024-01-07T04:35:37.337Z,44.05
2024-01-07T04:36:37.381Z,44.07
2024-01-07T04:37:37.333Z,44.07
2024-01-07T04:38:37.320Z,44.05
2024-01-07T04:39:37.370Z,44.07
2024-01-07T04:40:37.314Z,44.07
2024-01-07T04:41:37.304Z,44.07
2024-01-07T04:42:37.312Z,44.07
2024-01-07T04:43:37.272Z,44.07
2024-01-07T04:44:37.254Z,44.07
2024-01-07T04:45:37.299Z,44.07
2024-01-07T04:46:37.236Z,44.07
2024-01-07T04:47:37.302Z,44.07
2024-01-07T04:48:37.361Z,44.07
2024-01-07T04:49:37.357Z,44.07
2024-01-07T04:50:37.197Z,44.07
2024-01-07T04:51:37.220Z,44.07
2024-01-07T04:52:37.176Z,44.07
2024-01-07T04:53:37.149Z,44.07
2024-01-07T04:54:37.207Z,44.07
2024-01-07T04:55:37.168Z,44.05
2024-01-07T04:56:37.130Z,44.07
2024-01-07T04:57:37.158Z,44.07
2024-01-07T04:58:37.109Z,44.07
2024-01-07T04:59:37.101Z,44.07
2024-01-07T05:00:37.176Z,44.07
2024-01-07T05:01:37.154Z,44.07
2024-01-07T05:02:37.075Z,44.07
2024-01-07T05:03:37.200Z,44.07
2024-01-07T05:04:37.158Z,43.96
2024-01-07T05:05:37.046Z,43.96
2024-01-07T05:06:37.261Z,43.96
2024-01-07T05:07:37.032Z,43.95
2024-01-07T05:08:37.016Z,43.96
2024-01-07T05:09:37.063Z,43.96
2024-01-07T05:10:36.998Z,43.96
2024-01-07T05:11:36.990Z,43.96
2024-01-07T05:12:37.008Z,43.96
2024-01-07T05:13:36.985Z,43.96
2024-01-07T05:14:36.972Z,43.96
2024-01-07T05:15:36.988Z,43.96
2024-01-07T05:16:36.951Z,43.96
2024-01-07T05:17:36.943Z,43.96
2024-01-07T05:18:37.062Z,43.86
2024-01-07T05:19:36.994Z,43.86
2024-01-07T05:20:36.906Z,43.86
2024-01-07T05:21:36.931Z,43.86
2024-01-07T05:22:36.983Z,43.84
2024-01-07T05:23:36.852Z,43.84
2024-01-07T05:24:36.891Z,43.96
2024-01-07T05:25:36.840Z,43.86
2024-01-07T05:26:36.833Z,43.96
2024-01-07T05:27:36.845Z,43.96
2024-01-07T05:28:36.815Z,43.86
2024-01-07T05:29:36.798Z,43.96
2024-01-07T05:30:36.850Z,43.96
2024-01-07T05:31:36.882Z,43.86
2024-01-07T05:32:36.861Z,43.96
2024-01-07T05:33:36.872Z,43.96
2024-01-07T05:34:36.873Z,43.96
2024-01-07T05:35:36.766Z,43.96
2024-01-07T05:36:36.826Z,43.96
2024-01-07T05:37:36.705Z,43.96
2024-01-07T05:38:36.718Z,43.96
2024-01-07T05:39:36.802Z,43.96
2024-01-07T05:40:37.033Z,43.96
2024-01-07T05:41:36.676Z,44.07
2024-01-07T05:42:36.732Z,43.96
2024-01-07T05:43:36.646Z,44.07
2024-01-07T05:44:36.650Z,44.07
2024-01-07T05:45:36.761Z,44.07
2024-01-07T05:46:36.644Z,44.07
2024-01-07T05:47:36.661Z,44.07
2024-01-07T05:48:36.682Z,44.07
2024-01-07T05:49:36.698Z,44.07
2024-01-07T05:50:36.597Z,44.17
2024-01-07T05:51:36.595Z,44.17
2024-01-07T05:52:36.581Z,44.17
2024-01-07T05:53:36.546Z,44.17
2024-01-07T05:54:36.559Z,44.20
2024-01-07T05:55:36.535Z,44.20
2024-01-07T05:56:36.533Z,44.20
2024-01-07T05:57:36.543Z,44.30
2024-01-07T05:58:36.508Z,44.20
2024-01-07T05:59:36.496Z,44.20
2024-01-07T06:00:36.496Z,44.20
2024-01-07T06:01:36.647Z,44.20
2024-01-07T06:02:36.480Z,44.20
2024-01-07T06:03:36.746Z,44.30
2024-01-07T06:04:36.481Z,44.30
2024-01-07T06:05:36.475Z,44.30
2024-01-07T06:06:36.649Z,44.30
2024-01-07T06:07:36.549Z,44.30
2024-01-07T06:08:36.416Z,44.30
2024-01-07T06:09:36.418Z,44.30
2024-01-07T06:10:36.376Z,44.30
2024-01-07T06:11:36.372Z,44.30
2024-01-07T06:12:36.408Z,44.30
2024-01-07T06:13:36.363Z,44.30
2024-01-07T06:14:36.351Z,44.40
2024-01-07T06:15:36.396Z,44.30
2024-01-07T06:16:36.336Z,44.30
2024-01-07T06:17:36.310Z,44.30
2024-01-07T06:18:38.543Z,44.30
2024-01-07T06:19:36.385Z,44.30
2024-01-07T06:20:36.280Z,44.30
2024-01-07T06:21:36.328Z,44.30
2024-01-07T06:22:36.321Z,44.30
2024-01-07T06:23:36.267Z,44.30
2024-01-07T06:24:36.262Z,44.30
2024-01-07T06:25:36.231Z,44.30
2024-01-07T06:26:36.224Z,44.30
2024-01-07T06:27:36.303Z,44.30
2024-01-07T06:28:36.203Z,44.30
2024-01-07T06:29:36.199Z,44.20
2024-01-07T06:30:36.241Z,44.30
2024-01-07T06:31:36.285Z,44.30
2024-01-07T06:32:36.191Z,44.20
2024-01-07T06:33:36.379Z,44.20
2024-01-07T06:34:36.184Z,44.20
2024-01-07T06:35:36.133Z,44.20
2024-01-07T06:36:36.514Z,44.20
2024-01-07T06:37:36.106Z,44.20
2024-01-07T06:38:36.104Z,44.20
2024-01-07T06:39:36.136Z,44.20
2024-01-07T06:40:36.077Z,44.20
2024-01-07T06:41:36.093Z,44.20
2024-01-07T06:42:36.078Z,44.20
2024-01-07T06:43:36.057Z,44.30
2024-01-07T06:44:36.041Z,44.30
2024-01-07T06:45:36.070Z,44.30
2024-01-07T06:46:36.016Z,44.30
2024-01-07T06:47:36.080Z,44.30
2024-01-07T06:48:36.150Z,44.30
2024-01-07T06:49:36.099Z,44.30
2024-01-07T06:50:35.980Z,44.30
2024-01-07T06:51:35.990Z,44.30
2024-01-07T06:52:35.964Z,44.30
2024-01-07T06:53:35.997Z,44.30
2024-01-07T06:54:35.965Z,44.40
2024-01-07T06:55:35.940Z,44.30
2024-01-07T06:56:35.978Z,44.30
2024-01-07T06:57:35.928Z,44.30
2024-01-07T06:58:35.890Z,44.40
2024-01-07T06:59:35.898Z,44.30
2024-01-07T07:00:36.024Z,44.30
2024-01-07T07:01:35.980Z,44.30
2024-01-07T07:02:35.857Z,44.30
2024-01-07T07:03:35.958Z,44.30
2024-01-07T07:04:36.021Z,44.30
2024-01-07T07:05:35.848Z,44.30
2024-01-07T07:06:35.865Z,44.30
2024-01-07T07:07:35.921Z,44.30
2024-01-07T07:08:35.829Z,44.30
2024-01-07T07:09:35.851Z,44.30
2024-01-07T07:10:35.799Z,44.30
2024-01-07T07:11:35.801Z,44.30
2024-01-07T07:12:35.804Z,44.30
2024-01-07T07:13:35.756Z,44.20
2024-01-07T07:14:35.736Z,44.20
2024-01-07T07:15:35.796Z,44.20
2024-01-07T07:16:35.733Z,44.20
2024-01-07T07:17:35.750Z,44.20
2024-01-07T07:18:35.805Z,44.09
2024-01-07T07:19:35.789Z,44.20
2024-01-07T07:20:35.676Z,44.20
2024-01-07T07:21:36.499Z,44.09
2024-01-07T07:22:35.672Z,44.20
2024-01-07T07:23:35.651Z,44.09
2024-01-07T07:24:35.736Z,44.09
2024-01-07T07:25:35.646Z,44.09
2024-01-07T07:26:35.626Z,44.09
2024-01-07T07:27:35.644Z,44.09
2024-01-07T07:28:35.620Z,44.09
2024-01-07T07:29:36.468Z,44.09
2024-01-07T07:30:35.811Z,43.98
2024-01-07T07:31:35.633Z,43.98
2024-01-07T07:32:35.609Z,43.98
2024-01-07T07:33:35.688Z,43.98
2024-01-07T07:34:35.630Z,43.98
2024-01-07T07:35:35.553Z,43.98
2024-01-07T07:36:35.548Z,43.98
2024-01-07T07:37:35.517Z,43.98
2024-01-07T07:38:35.499Z,43.98
2024-01-07T07:39:35.527Z,43.88
2024-01-07T07:40:35.499Z,43.88
2024-01-07T07:41:35.481Z,43.88
2024-01-07T07:42:35.517Z,43.88
2024-01-07T07:43:35.458Z,43.88
2024-01-07T07:44:35.449Z,43.88
2024-01-07T07:45:35.506Z,43.88
2024-01-07T07:46:35.432Z,43.77
2024-01-07T07:47:35.492Z,43.77
2024-01-07T07:48:35.473Z,43.77
2024-01-07T07:49:35.503Z,43.77
2024-01-07T07:50:35.391Z,43.77
2024-01-07T07:51:35.416Z,43.76
2024-01-07T07:52:35.365Z,43.77
2024-01-07T07:53:35.354Z,43.65
2024-01-07T07:54:36.322Z,43.76
2024-01-07T07:55:35.374Z,43.65
2024-01-07T07:56:35.323Z,43.65
2024-01-07T07:57:35.362Z,43.65
2024-01-07T07:58:35.387Z,43.65
2024-01-07T07:59:35.299Z,43.65
2024-01-07T08:00:35.382Z,43.65
2024-01-07T08:01:35.362Z,43.65
2024-01-07T08:02:35.260Z,43.65
2024-01-07T08:03:35.348Z,43.65
2024-01-07T08:04:35.331Z,43.65
2024-01-07T08:05:35.289Z,43.55
2024-01-07T08:06:35.265Z,43.55
2024-01-07T08:07:35.222Z,43.44
2024-01-07T08:08:35.200Z,43.55
2024-01-07T08:09:35.230Z,43.44
2024-01-07T08:10:35.227Z,43.44
2024-01-07T08:11:36.754Z,43.44
2024-01-07T08:12:35.217Z,43.44
2024-01-07T08:13:35.166Z,43.55
2024-01-07T08:14:35.149Z,43.34
2024-01-07T08:15:35.157Z,43.34
2024-01-07T08:16:35.930Z,43.34
2024-01-07T08:17:35.187Z,43.34
2024-01-07T08:18:35.224Z,43.44
2024-01-07T08:19:35.168Z,43.34
2024-01-07T08:20:35.107Z,43.34
2024-01-07T08:21:35.092Z,43.32
2024-01-07T08:22:35.091Z,43.32
2024-01-07T08:23:35.078Z,43.32
2024-01-07T08:24:35.047Z,43.32
2024-01-07T08:25:35.056Z,43.43
2024-01-07T08:26:35.063Z,43.53
2024-01-07T08:27:35.098Z,43.63
2024-01-07T08:28:34.995Z,43.63
2024-01-07T08:29:35.030Z,43.63
2024-01-07T08:30:35.059Z,43.53
2024-01-07T08:31:35.152Z,43.84
2024-01-07T08:32:35.003Z,43.95
2024-01-07T08:33:35.228Z,43.74
2024-01-07T08:34:35.090Z,43.63
2024-01-07T08:35:34.947Z,43.51
2024-01-07T08:36:34.936Z,43.71
2024-01-07T08:37:34.928Z,43.93
2024-01-07T08:38:34.903Z,43.71
2024-01-07T08:39:34.904Z,43.61
2024-01-07T08:40:34.891Z,43.51
2024-01-07T08:41:34.872Z,43.51
2024-01-07T08:42:34.895Z,43.71
2024-01-07T08:43:34.856Z,43.61
2024-01-07T08:44:34.857Z,43.82
2024-01-07T08:45:34.844Z,43.82
2024-01-07T08:46:34.817Z,43.71
2024-01-07T08:47:39.882Z,43.61
2024-01-07T08:48:35.923Z,43.61
2024-01-07T08:49:35.305Z,43.59
2024-01-07T08:50:34.782Z,43.80
2024-01-07T08:51:34.899Z,44.01
2024-01-07T08:52:34.766Z,43.90
2024-01-07T08:53:34.747Z,43.90
2024-01-07T08:54:34.782Z,43.70
2024-01-07T08:55:34.727Z,44.01
2024-01-07T08:56:34.722Z,44.21
2024-01-07T08:57:34.725Z,44.74
2024-01-07T08:58:34.692Z,44.53
2024-01-07T08:59:34.697Z,44.64
2024-01-07T09:00:34.769Z,44.84
2024-01-07T09:01:34.727Z,44.11
2024-01-07T09:02:34.682Z,44.43
2024-01-07T09:03:34.736Z,44.21
2024-01-07T09:04:34.667Z,44.32
2024-01-07T09:05:34.670Z,44.01
2024-01-07T09:06:34.666Z,44.09
2024-01-07T09:07:34.606Z,44.30
2024-01-07T09:08:34.588Z,44.43
2024-01-07T09:09:34.608Z,45.13
2024-01-07T09:10:34.602Z,45.23
2024-01-07T09:11:34.572Z,44.82
2024-01-07T09:12:34.573Z,44.82
2024-01-07T09:13:34.544Z,45.65
2024-01-07T09:14:34.516Z,45.57
2024-01-07T09:15:34.563Z,45.65
2024-01-07T09:16:35.118Z,45.34
2024-01-07T09:17:34.582Z,45.45
2024-01-07T09:18:34.590Z,46.07
2024-01-07T09:19:34.656Z,45.55
2024-01-07T09:20:34.463Z,46.28
2024-01-07T09:21:34.473Z,46.28
2024-01-07T09:22:34.440Z,46.59
2024-01-07T09:23:34.446Z,46.59
2024-01-07T09:24:34.452Z,46.48
2024-01-07T09:25:34.424Z,46.07
2024-01-07T09:26:34.389Z,46.17
2024-01-07T09:27:34.409Z,46.69
2024-01-07T09:28:34.372Z,46.59
2024-01-07T09:29:34.383Z,46.38
2024-01-07T09:30:34.447Z,46.67
2024-01-07T09:31:34.508Z,46.25
2024-01-07T09:32:38.006Z,47.11
2024-01-07T09:33:34.454Z,46.36
2024-01-07T09:34:34.444Z,47.19
2024-01-07T09:35:34.320Z,46.88
2024-01-07T09:36:34.309Z,45.63
2024-01-07T09:37:34.415Z,46.67
2024-01-07T09:38:34.263Z,46.78
2024-01-07T09:39:34.285Z,46.88
2024-01-07T09:40:34.242Z,46.98
2024-01-07T09:41:34.271Z,46.78
2024-01-07T09:42:34.249Z,47.63
2024-01-07T09:43:36.719Z,46.17
2024-01-07T09:44:34.196Z,45.94
2024-01-07T09:45:34.210Z,45.63
2024-01-07T09:46:34.195Z,45.84
2024-01-07T09:47:34.529Z,46.15
2024-01-07T09:48:34.458Z,46.25
2024-01-07T09:49:34.189Z,46.36
2024-01-07T09:50:34.159Z,46.46
2024-01-07T09:51:34.168Z,46.78
2024-01-07T09:52:34.149Z,45.84
2024-01-07T09:53:34.119Z,46.57
2024-01-07T09:54:34.164Z,46.67
2024-01-07T09:55:34.097Z,47.40
2024-01-07T09:56:34.073Z,47.81
2024-01-07T09:57:34.098Z,47.19
2024-01-07T09:58:34.049Z,46.78
2024-01-07T09:59:34.054Z,46.88
2024-01-07T10:00:34.154Z,46.36
2024-01-07T10:01:34.141Z,46.36
2024-01-07T10:02:34.028Z,46.15
2024-01-07T10:03:34.131Z,46.23
2024-01-07T10:04:34.073Z,47.06
2024-01-07T10:05:34.040Z,49.06
2024-01-07T10:06:35.028Z,48.41
2024-01-07T10:07:33.978Z,50.10
2024-01-07T10:08:33.944Z,49.58
2024-01-07T10:09:34.018Z,48.10
2024-01-07T10:10:34.097Z,47.69
2024-01-07T10:11:33.921Z,48.72
2024-01-07T10:12:33.956Z,52.78
2024-01-07T10:13:33.914Z,50.42
2024-01-07T10:14:34.334Z,48.83
2024-01-07T10:15:33.922Z,51.22
2024-01-07T10:16:33.869Z,50.39
2024-01-07T10:17:33.881Z,49.15
2024-01-07T10:18:33.919Z,49.98
2024-01-07T10:19:34.032Z,49.25
2024-01-07T10:20:33.820Z,49.66
2024-01-07T10:21:33.846Z,49.35
2024-01-07T10:22:33.797Z,50.60
2024-01-07T10:23:34.113Z,50.68
2024-01-07T10:24:33.819Z,51.22
2024-01-07T10:25:33.820Z,52.47
2024-01-07T10:26:35.629Z,50.81
2024-01-07T10:27:33.779Z,49.56
2024-01-07T10:28:33.739Z,51.32
2024-01-07T10:29:33.746Z,51.01
2024-01-07T10:30:33.932Z,50.26
2024-01-07T10:31:33.857Z,49.85
2024-01-07T10:32:33.796Z,50.37
2024-01-07T10:33:33.828Z,50.47
2024-01-07T10:34:33.951Z,51.92
2024-01-07T10:35:33.676Z,53.28
2024-01-07T10:36:33.680Z,51.40
2024-01-07T10:37:33.653Z,52.00
2024-01-07T10:38:33.625Z,53.17
2024-01-07T10:39:33.701Z,51.59
2024-01-07T10:40:33.624Z,53.15
2024-01-07T10:41:33.607Z,52.52
2024-01-07T10:42:33.706Z,53.77
2024-01-07T10:43:33.593Z,54.60
2024-01-07T10:44:33.696Z,52.94
2024-01-07T10:45:33.580Z,54.39
2024-01-07T10:46:33.545Z,53.25
2024-01-07T10:47:33.580Z,54.60
2024-01-07T10:48:33.737Z,53.67
2024-01-07T10:49:33.576Z,52.73
2024-01-07T10:50:33.517Z,52.52
2024-01-07T10:51:33.505Z,52.19
2024-01-07T10:52:33.587Z,53.67
2024-01-07T10:53:33.471Z,52.83
2024-01-07T10:54:33.499Z,55.02
2024-01-07T10:55:33.450Z,56.68
2024-01-07T10:56:33.453Z,54.29
2024-01-07T10:57:33.475Z,53.04
2024-01-07T10:58:33.420Z,52.62
2024-01-07T10:59:33.421Z,53.67
2024-01-07T11:00:33.479Z,52.21
2024-01-07T11:01:33.471Z,53.36
2024-01-07T11:02:33.418Z,53.77
2024-01-07T11:03:33.477Z,53.36
2024-01-07T11:04:33.485Z,50.76
2024-01-07T11:05:33.399Z,52.21
2024-01-07T11:06:33.374Z,56.78
2024-01-07T11:07:33.320Z,54.60
2024-01-07T11:08:33.340Z,53.04
2024-01-07T11:09:33.358Z,51.69
2024-01-07T11:10:38.704Z,51.59
2024-01-07T11:11:34.380Z,51.79
2024-01-07T11:12:33.311Z,53.36
2024-01-07T11:13:33.445Z,53.36
2024-01-07T11:14:33.260Z,52.31
2024-01-07T11:15:33.274Z,50.65
2024-01-07T11:16:33.243Z,52.73
2024-01-07T11:17:33.313Z,52.11
2024-01-07T11:18:33.385Z,52.42
2024-01-07T11:19:33.354Z,51.79
2024-01-07T11:20:33.201Z,53.15
2024-01-07T11:21:33.271Z,51.90
2024-01-07T11:22:33.375Z,52.62
2024-01-07T11:23:33.170Z,51.26
2024-01-07T11:24:33.177Z,53.56
2024-01-07T11:25:33.270Z,52.62
2024-01-07T11:26:33.140Z,51.98
2024-01-07T11:27:33.201Z,53.56
2024-01-07T11:28:33.138Z,51.38
2024-01-07T11:29:33.108Z,52.09
2024-01-07T11:30:33.147Z,52.19
2024-01-07T11:31:33.144Z,50.84
2024-01-07T11:32:33.123Z,54.37
2024-01-07T11:33:33.172Z,58.23
2024-01-07T11:34:33.162Z,58.54
2024-01-07T11:35:33.053Z,53.36
2024-01-07T11:36:33.067Z,57.51
2024-01-07T11:37:33.030Z,56.47
2024-01-07T11:38:33.034Z,55.12
2024-01-07T11:39:33.031Z,55.64
2024-01-07T11:40:32.996Z,53.98
2024-01-07T11:41:32.993Z,53.25
2024-01-07T11:42:33.012Z,56.78
2024-01-07T11:43:32.955Z,56.16
2024-01-07T11:44:32.953Z,57.64
2024-01-07T11:45:33.126Z,55.33
2024-01-07T11:46:32.952Z,52.31
2024-01-07T11:47:32.987Z,50.86
2024-01-07T11:48:33.085Z,55.64
2024-01-07T11:49:32.998Z,54.81
2024-01-07T11:50:32.906Z,54.71
2024-01-07T11:51:33.200Z,55.43
2024-01-07T11:52:32.869Z,55.74
2024-01-07T11:53:32.869Z,60.62
2024-01-07T11:54:32.916Z,58.44
2024-01-07T11:55:32.857Z,56.37
2024-01-07T11:56:32.893Z,60.62
2024-01-07T11:57:32.890Z,57.71
2024-01-07T11:58:32.828Z,56.47
2024-01-07T11:59:32.828Z,56.05
2024-01-07T12:00:32.882Z,58.65
2024-01-07T12:01:32.828Z,54.81
2024-01-07T12:02:32.772Z,57.71
2024-01-07T12:03:32.872Z,57.82
2024-01-07T12:04:32.869Z,56.99
2024-01-07T12:05:32.831Z,56.16
2024-01-07T12:06:32.785Z,56.16
2024-01-07T12:07:32.717Z,56.47
2024-01-07T12:08:32.712Z,55.95
2024-01-07T12:09:32.749Z,56.78
2024-01-07T12:10:32.691Z,55.95
2024-01-07T12:11:32.668Z,57.20
2024-01-07T12:12:32.721Z,56.37
2024-01-07T12:13:32.648Z,58.96
2024-01-07T12:14:32.647Z,55.85
2024-01-07T12:15:32.676Z,55.22
2024-01-07T12:16:32.804Z,56.16
2024-01-07T12:17:32.685Z,55.10
2024-01-07T12:18:32.714Z,55.82
2024-01-07T12:19:32.603Z,56.03
2024-01-07T12:20:32.581Z,58.83
2024-01-07T12:21:32.605Z,56.86
2024-01-07T12:22:32.564Z,56.45
2024-01-07T12:23:32.572Z,59.06
2024-01-07T12:24:32.579Z,55.95
2024-01-07T12:25:32.533Z,54.89
2024-01-07T12:26:32.525Z,54.58
2024-01-07T12:27:32.525Z,53.64
2024-01-07T12:28:32.560Z,57.07
2024-01-07T12:29:32.512Z,59.14
2024-01-07T12:30:32.650Z,59.38
2024-01-07T12:31:32.541Z,54.91
2024-01-07T12:32:32.494Z,53.67
2024-01-07T12:33:32.570Z,56.16
2024-01-07T12:34:32.698Z,58.86
2024-01-07T12:35:32.449Z,58.65
2024-01-07T12:36:32.454Z,58.96
2024-01-07T12:37:32.412Z,56.37
2024-01-07T12:38:32.394Z,55.43
2024-01-07T12:39:32.713Z,56.68
2024-01-07T12:40:32.372Z,56.78
2024-01-07T12:41:32.367Z,55.12
2024-01-07T12:42:32.437Z,56.68
2024-01-07T12:43:32.331Z,52.52
2024-01-07T12:44:32.340Z,52.31
2024-01-07T12:45:32.427Z,54.50
2024-01-07T12:46:32.327Z,56.26
2024-01-07T12:47:32.343Z,55.33
2024-01-07T12:48:32.481Z,55.33
2024-01-07T12:49:32.488Z,54.60
2024-01-07T12:50:32.281Z,60.00
2024-01-07T12:51:32.307Z,57.30
2024-01-07T12:52:32.265Z,57.51